sensor_id;sensor_type;location;lat;lon;timestamp;temperature;humidity
30063;DHT22;16889;67.864;24.990;2023-08-01T00:00:47;13.90;99.90
30063;DHT22;16889;67.864;24.990;2023-08-01T00:05:33;14.10;99.90
30063;DHT22;16889;67.864;24.990;2023-08-01T00:10:19;14.10;99.90
30063;DHT22;16889;67.864;24.990;2023-08-01T00:15:06;14.10;99.90
30063;DHT22;16889;67.864;24.990;2023-08-01T00:19:52;14.10;99.90
30063;DHT22;16889;67.864;24.990;2023-08-01T00:24:38;14.20;99.90
30063;DHT22;16889;67.864;24.990;2023-08-01T00:29:24;14.20;99.90
30063;DHT22;16889;67.864;24.990;2023-08-01T00:34:10;14.10;99.90
30063;DHT22;16889;67.864;24.990;2023-08-01T00:38:56;14.10;99.90
30063;DHT22;16889;67.864;24.990;2023-08-01T00:43:42;14.10;99.90
30063;DHT22;16889;67.864;24.990;2023-08-01T00:48:29;13.90;99.90
30063;DHT22;16889;67.864;24.990;2023-08-01T00:53:15;13.90;99.90
30063;DHT22;16889;67.864;24.990;2023-08-01T00:58:01;13.90;99.90
30063;DHT22;16889;67.864;24.990;2023-08-01T01:02:47;13.90;99.90
30063;DHT22;16889;67.864;24.990;2023-08-01T01:07:34;13.90;99.90
30063;DHT22;16889;67.864;24.990;2023-08-01T01:12:20;13.90;99.90
30063;DHT22;16889;67.864;24.990;2023-08-01T01:17:06;13.90;99.90
30063;DHT22;16889;67.864;24.990;2023-08-01T01:21:52;13.80;99.90
30063;DHT22;16889;67.864;24.990;2023-08-01T01:26:40;13.80;99.90
30063;DHT22;16889;67.864;24.990;2023-08-01T01:31:27;13.80;99.90
30063;DHT22;16889;67.864;24.990;2023-08-01T01:36:14;13.80;99.90
30063;DHT22;16889;67.864;24.990;2023-08-01T01:41:00;13.80;99.90
30063;DHT22;16889;67.864;24.990;2023-08-01T01:45:46;13.80;99.90
30063;DHT22;16889;67.864;24.990;2023-08-01T01:50:31;13.80;99.90
30063;DHT22;16889;67.864;24.990;2023-08-01T01:55:18;13.90;99.90
30063;DHT22;16889;67.864;24.990;2023-08-01T02:00:07;14.00;99.90
30063;DHT22;16889;67.864;24.990;2023-08-01T02:04:55;13.90;99.90
30063;DHT22;16889;67.864;24.990;2023-08-01T02:09:41;13.90;99.90
30063;DHT22;16889;67.864;24.990;2023-08-01T02:14:27;14.00;99.90
30063;DHT22;16889;67.864;24.990;2023-08-01T02:19:13;14.00;99.90
30063;DHT22;16889;67.864;24.990;2023-08-01T02:23:59;14.10;99.90
30063;DHT22;16889;67.864;24.990;2023-08-01T02:28:45;14.00;99.90
30063;DHT22;16889;67.864;24.990;2023-08-01T02:33:31;14.10;99.90
30063;DHT22;16889;67.864;24.990;2023-08-01T02:38:17;14.20;99.90
30063;DHT22;16889;67.864;24.990;2023-08-01T02:43:03;14.30;99.90
30063;DHT22;16889;67.864;24.990;2023-08-01T02:47:49;14.30;99.90
30063;DHT22;16889;67.864;24.990;2023-08-01T02:52:35;14.40;99.90
30063;DHT22;16889;67.864;24.990;2023-08-01T02:57:21;14.40;99.90
30063;DHT22;16889;67.864;24.990;2023-08-01T03:02:07;14.40;99.90
30063;DHT22;16889;67.864;24.990;2023-08-01T03:06:53;14.20;99.90
30063;DHT22;16889;67.864;24.990;2023-08-01T03:11:39;14.30;99.90
30063;DHT22;16889;67.864;24.990;2023-08-01T03:16:25;14.30;99.90
30063;DHT22;16889;67.864;24.990;2023-08-01T03:21:11;14.30;99.90
30063;DHT22;16889;67.864;24.990;2023-08-01T03:25:57;14.30;99.90
30063;DHT22;16889;67.864;24.990;2023-08-01T03:30:43;14.30;99.90
30063;DHT22;16889;67.864;24.990;2023-08-01T03:35:29;14.40;99.90
30063;DHT22;16889;67.864;24.990;2023-08-01T03:40:15;14.40;99.90
30063;DHT22;16889;67.864;24.990;2023-08-01T03:45:01;14.50;99.90
30063;DHT22;16889;67.864;24.990;2023-08-01T03:49:47;14.60;99.90
30063;DHT22;16889;67.864;24.990;2023-08-01T03:54:33;14.60;99.90
30063;DHT22;16889;67.864;24.990;2023-08-01T03:59:19;14.60;99.90
30063;DHT22;16889;67.864;24.990;2023-08-01T04:04:05;14.80;99.90
30063;DHT22;16889;67.864;24.990;2023-08-01T04:08:52;14.90;99.90
30063;DHT22;16889;67.864;24.990;2023-08-01T04:13:38;15.10;99.90
30063;DHT22;16889;67.864;24.990;2023-08-01T04:18:24;15.20;99.90
30063;DHT22;16889;67.864;24.990;2023-08-01T04:23:10;15.10;99.90
30063;DHT22;16889;67.864;24.990;2023-08-01T04:27:56;15.10;99.90
30063;DHT22;16889;67.864;24.990;2023-08-01T04:32:42;15.20;99.90
30063;DHT22;16889;67.864;24.990;2023-08-01T04:37:28;15.20;99.90
30063;DHT22;16889;67.864;24.990;2023-08-01T04:42:14;15.20;99.90
30063;DHT22;16889;67.864;24.990;2023-08-01T04:47:00;15.10;99.90
30063;DHT22;16889;67.864;24.990;2023-08-01T04:51:47;15.10;99.90
30063;DHT22;16889;67.864;24.990;2023-08-01T04:56:33;14.90;99.90
30063;DHT22;16889;67.864;24.990;2023-08-01T05:01:19;14.80;99.90
30063;DHT22;16889;67.864;24.990;2023-08-01T05:06:05;14.80;99.90
30063;DHT22;16889;67.864;24.990;2023-08-01T05:10:51;14.80;99.90
30063;DHT22;16889;67.864;24.990;2023-08-01T05:15:36;14.80;99.90
30063;DHT22;16889;67.864;24.990;2023-08-01T05:20:22;14.90;99.90
30063;DHT22;16889;67.864;24.990;2023-08-01T05:25:08;14.80;99.90
30063;DHT22;16889;67.864;24.990;2023-08-01T05:29:56;14.90;99.90
30063;DHT22;16889;67.864;24.990;2023-08-01T05:34:42;14.90;99.90
30063;DHT22;16889;67.864;24.990;2023-08-01T05:39:28;14.90;99.90
30063;DHT22;16889;67.864;24.990;2023-08-01T05:44:14;14.80;99.90
30063;DHT22;16889;67.864;24.990;2023-08-01T05:49:00;14.60;99.90
30063;DHT22;16889;67.864;24.990;2023-08-01T05:53:46;14.50;99.90
30063;DHT22;16889;67.864;24.990;2023-08-01T05:58:32;14.40;99.90
30063;DHT22;16889;67.864;24.990;2023-08-01T06:03:18;14.30;99.90
30063;DHT22;16889;67.864;24.990;2023-08-01T06:08:06;14.30;99.90
30063;DHT22;16889;67.864;24.990;2023-08-01T06:12:52;14.20;99.90
30063;DHT22;16889;67.864;24.990;2023-08-01T06:17:38;14.10;99.90
30063;DHT22;16889;67.864;24.990;2023-08-01T06:22:23;14.00;99.90
30063;DHT22;16889;67.864;24.990;2023-08-01T06:27:09;13.90;99.90
30063;DHT22;16889;67.864;24.990;2023-08-01T06:31:55;13.90;99.90
30063;DHT22;16889;67.864;24.990;2023-08-01T06:36:41;13.90;99.90
30063;DHT22;16889;67.864;24.990;2023-08-01T06:41:27;13.80;99.90
30063;DHT22;16889;67.864;24.990;2023-08-01T06:46:13;13.70;99.90
30063;DHT22;16889;67.864;24.990;2023-08-01T06:50:59;13.80;99.90
30063;DHT22;16889;67.864;24.990;2023-08-01T06:55:45;13.90;99.90
30063;DHT22;16889;67.864;24.990;2023-08-01T07:00:31;13.80;99.90
30063;DHT22;16889;67.864;24.990;2023-08-01T07:05:17;13.90;99.90
30063;DHT22;16889;67.864;24.990;2023-08-01T07:10:03;13.80;99.90
30063;DHT22;16889;67.864;24.990;2023-08-01T07:14:49;13.70;99.90
30063;DHT22;16889;67.864;24.990;2023-08-01T07:19:35;13.70;99.90
30063;DHT22;16889;67.864;24.990;2023-08-01T07:24:21;13.70;99.90
30063;DHT22;16889;67.864;24.990;2023-08-01T07:29:07;13.80;99.90
30063;DHT22;16889;67.864;24.990;2023-08-01T07:33:57;13.90;99.90
30063;DHT22;16889;67.864;24.990;2023-08-01T07:38:42;13.90;99.90
30063;DHT22;16889;67.864;24.990;2023-08-01T07:43:28;14.00;99.90
30063;DHT22;16889;67.864;24.990;2023-08-01T07:48:14;13.90;99.90
30063;DHT22;16889;67.864;24.990;2023-08-01T07:53:00;13.90;99.90
30063;DHT22;16889;67.864;24.990;2023-08-01T07:57:50;13.70;99.90
30063;DHT22;16889;67.864;24.990;2023-08-01T08:02:36;13.80;99.90
30063;DHT22;16889;67.864;24.990;2023-08-01T08:07:22;13.90;99.90
30063;DHT22;16889;67.864;24.990;2023-08-01T08:12:08;13.70;99.90
30063;DHT22;16889;67.864;24.990;2023-08-01T08:16:54;13.70;99.90
30063;DHT22;16889;67.864;24.990;2023-08-01T08:21:40;13.70;99.90
30063;DHT22;16889;67.864;24.990;2023-08-01T08:26:26;13.70;99.90
30063;DHT22;16889;67.864;24.990;2023-08-01T08:31:12;13.60;99.90
30063;DHT22;16889;67.864;24.990;2023-08-01T08:35:58;13.60;99.90
30063;DHT22;16889;67.864;24.990;2023-08-01T08:41:02;13.60;99.90
30063;DHT22;16889;67.864;24.990;2023-08-01T08:45:55;13.50;99.90
30063;DHT22;16889;67.864;24.990;2023-08-01T08:50:43;13.50;99.90
30063;DHT22;16889;67.864;24.990;2023-08-01T08:55:30;13.50;99.90
30063;DHT22;16889;67.864;24.990;2023-08-01T09:00:17;13.50;99.90
30063;DHT22;16889;67.864;24.990;2023-08-01T09:05:04;13.50;99.90
30063;DHT22;16889;67.864;24.990;2023-08-01T09:09:50;13.60;99.90
30063;DHT22;16889;67.864;24.990;2023-08-01T09:14:36;13.70;99.90
30063;DHT22;16889;67.864;24.990;2023-08-01T09:19:24;13.70;99.90
30063;DHT22;16889;67.864;24.990;2023-08-01T09:24:14;13.70;99.90
30063;DHT22;16889;67.864;24.990;2023-08-01T09:29:00;13.70;99.90
30063;DHT22;16889;67.864;24.990;2023-08-01T09:33:46;13.80;99.90
30063;DHT22;16889;67.864;24.990;2023-08-01T09:38:36;13.90;99.90
30063;DHT22;16889;67.864;24.990;2023-08-01T09:43:22;13.80;99.90
30063;DHT22;16889;67.864;24.990;2023-08-01T09:48:08;13.80;99.90
30063;DHT22;16889;67.864;24.990;2023-08-01T09:52:54;13.90;99.90
30063;DHT22;16889;67.864;24.990;2023-08-01T09:57:43;14.00;99.90
30063;DHT22;16889;67.864;24.990;2023-08-01T10:02:32;14.20;99.90
30063;DHT22;16889;67.864;24.990;2023-08-01T10:07:26;14.20;99.90
30063;DHT22;16889;67.864;24.990;2023-08-01T10:12:13;14.20;99.90
30063;DHT22;16889;67.864;24.990;2023-08-01T10:17:00;14.30;99.90
30063;DHT22;16889;67.864;24.990;2023-08-01T10:21:50;14.40;99.90
30063;DHT22;16889;67.864;24.990;2023-08-01T10:26:36;14.30;99.90
30063;DHT22;16889;67.864;24.990;2023-08-01T10:31:22;14.40;99.90
30063;DHT22;16889;67.864;24.990;2023-08-01T10:36:22;14.50;99.90
30063;DHT22;16889;67.864;24.990;2023-08-01T10:41:28;14.50;99.90
30063;DHT22;16889;67.864;24.990;2023-08-01T10:46:14;14.70;99.90
30063;DHT22;16889;67.864;24.990;2023-08-01T10:51:00;14.80;99.90
30063;DHT22;16889;67.864;24.990;2023-08-01T10:55:48;14.70;99.90
30063;DHT22;16889;67.864;24.990;2023-08-01T11:00:34;14.60;99.90
30063;DHT22;16889;67.864;24.990;2023-08-01T11:05:20;14.70;99.90
30063;DHT22;16889;67.864;24.990;2023-08-01T11:10:13;14.50;99.90
30063;DHT22;16889;67.864;24.990;2023-08-01T11:15:00;14.50;99.90
30063;DHT22;16889;67.864;24.990;2023-08-01T11:19:46;14.30;99.90
30063;DHT22;16889;67.864;24.990;2023-08-01T11:24:32;14.40;99.90
30063;DHT22;16889;67.864;24.990;2023-08-01T11:29:19;14.50;99.90
30063;DHT22;16889;67.864;24.990;2023-08-01T11:34:05;14.40;99.90
30063;DHT22;16889;67.864;24.990;2023-08-01T11:38:51;14.40;99.90
30063;DHT22;16889;67.864;24.990;2023-08-01T11:43:41;14.30;99.90
30063;DHT22;16889;67.864;24.990;2023-08-01T11:48:27;14.40;99.90
30063;DHT22;16889;67.864;24.990;2023-08-01T11:53:21;14.20;99.90
30063;DHT22;16889;67.864;24.990;2023-08-01T11:58:07;14.20;99.90
30063;DHT22;16889;67.864;24.990;2023-08-01T12:03:13;14.20;99.90
30063;DHT22;16889;67.864;24.990;2023-08-01T12:08:13;14.10;99.90
30063;DHT22;16889;67.864;24.990;2023-08-01T12:12:59;14.10;99.90
30063;DHT22;16889;67.864;24.990;2023-08-01T12:17:45;14.10;99.90
30063;DHT22;16889;67.864;24.990;2023-08-01T12:22:31;14.10;99.90
30063;DHT22;16889;67.864;24.990;2023-08-01T12:27:17;14.30;99.90
30063;DHT22;16889;67.864;24.990;2023-08-01T12:32:05;14.50;99.90
30063;DHT22;16889;67.864;24.990;2023-08-01T12:36:52;14.50;99.90
30063;DHT22;16889;67.864;24.990;2023-08-01T12:41:38;14.80;99.90
30063;DHT22;16889;67.864;24.990;2023-08-01T12:46:24;15.20;99.90
30063;DHT22;16889;67.864;24.990;2023-08-01T12:51:11;15.60;99.90
30063;DHT22;16889;67.864;24.990;2023-08-01T12:55:56;15.60;99.90
30063;DHT22;16889;67.864;24.990;2023-08-01T13:00:44;15.60;99.90
30063;DHT22;16889;67.864;24.990;2023-08-01T13:05:30;15.60;99.90
30063;DHT22;16889;67.864;24.990;2023-08-01T13:10:16;15.60;99.90
30063;DHT22;16889;67.864;24.990;2023-08-01T13:15:02;15.60;99.90
30063;DHT22;16889;67.864;24.990;2023-08-01T13:19:50;15.60;99.90
30063;DHT22;16889;67.864;24.990;2023-08-01T13:24:36;15.70;99.90
30063;DHT22;16889;67.864;24.990;2023-08-01T13:29:22;15.80;99.90
30063;DHT22;16889;67.864;24.990;2023-08-01T13:34:08;15.60;99.90
30063;DHT22;16889;67.864;24.990;2023-08-01T13:38:54;15.40;99.90
30063;DHT22;16889;67.864;24.990;2023-08-01T13:43:40;15.30;99.90
30063;DHT22;16889;67.864;24.990;2023-08-01T13:48:28;15.20;99.90
30063;DHT22;16889;67.864;24.990;2023-08-01T13:53:14;15.10;99.90
30063;DHT22;16889;67.864;24.990;2023-08-01T13:57:59;15.20;99.90
30063;DHT22;16889;67.864;24.990;2023-08-01T14:02:45;14.90;99.90
30063;DHT22;16889;67.864;24.990;2023-08-01T14:07:34;15.10;99.90
30063;DHT22;16889;67.864;24.990;2023-08-01T14:12:20;15.20;99.90
30063;DHT22;16889;67.864;24.990;2023-08-01T14:17:07;15.30;99.90
30063;DHT22;16889;67.864;24.990;2023-08-01T14:21:53;15.60;99.90
30063;DHT22;16889;67.864;24.990;2023-08-01T14:26:39;15.50;99.90
30063;DHT22;16889;67.864;24.990;2023-08-01T14:31:26;15.50;99.90
30063;DHT22;16889;67.864;24.990;2023-08-01T14:36:13;15.60;99.90
30063;DHT22;16889;67.864;24.990;2023-08-01T14:40:58;15.70;99.90
30063;DHT22;16889;67.864;24.990;2023-08-01T14:45:47;15.80;99.90
30063;DHT22;16889;67.864;24.990;2023-08-01T14:50:33;15.80;99.90
30063;DHT22;16889;67.864;24.990;2023-08-01T14:55:19;15.90;99.90
30063;DHT22;16889;67.864;24.990;2023-08-01T15:00:06;15.80;99.90
30063;DHT22;16889;67.864;24.990;2023-08-01T15:04:53;16.20;99.90
30063;DHT22;16889;67.864;24.990;2023-08-01T15:09:44;16.40;99.90
30063;DHT22;16889;67.864;24.990;2023-08-01T15:14:30;16.50;99.90
30063;DHT22;16889;67.864;24.990;2023-08-01T15:19:16;16.70;99.90
30063;DHT22;16889;67.864;24.990;2023-08-01T15:24:02;17.00;99.90
30063;DHT22;16889;67.864;24.990;2023-08-01T15:28:48;16.70;99.90
30063;DHT22;16889;67.864;24.990;2023-08-01T15:33:36;16.60;99.90
30063;DHT22;16889;67.864;24.990;2023-08-01T15:38:22;16.50;99.90
30063;DHT22;16889;67.864;24.990;2023-08-01T15:43:08;16.60;99.90
30063;DHT22;16889;67.864;24.990;2023-08-01T15:47:54;16.90;99.90
30063;DHT22;16889;67.864;24.990;2023-08-01T15:52:40;17.00;99.90
30063;DHT22;16889;67.864;24.990;2023-08-01T15:57:26;16.90;99.90
30063;DHT22;16889;67.864;24.990;2023-08-01T16:02:11;16.90;99.90
30063;DHT22;16889;67.864;24.990;2023-08-01T16:06:57;16.90;99.90
30063;DHT22;16889;67.864;24.990;2023-08-01T16:11:43;16.70;99.90
30063;DHT22;16889;67.864;24.990;2023-08-01T16:16:29;16.60;99.90
30063;DHT22;16889;67.864;24.990;2023-08-01T16:21:15;16.60;99.90
30063;DHT22;16889;67.864;24.990;2023-08-01T16:26:01;16.80;99.90
30063;DHT22;16889;67.864;24.990;2023-08-01T16:30:51;16.80;99.90
30063;DHT22;16889;67.864;24.990;2023-08-01T16:35:37;16.80;99.90
30063;DHT22;16889;67.864;24.990;2023-08-01T16:40:23;16.60;99.90
30063;DHT22;16889;67.864;24.990;2023-08-01T16:45:11;16.60;99.90
30063;DHT22;16889;67.864;24.990;2023-08-01T16:49:57;16.40;99.90
30063;DHT22;16889;67.864;24.990;2023-08-01T16:54:43;16.10;99.90
30063;DHT22;16889;67.864;24.990;2023-08-01T16:59:29;16.20;99.90
30063;DHT22;16889;67.864;24.990;2023-08-01T17:04:15;16.20;99.90
30063;DHT22;16889;67.864;24.990;2023-08-01T17:09:01;16.30;99.90
30063;DHT22;16889;67.864;24.990;2023-08-01T17:13:47;16.30;99.90
30063;DHT22;16889;67.864;24.990;2023-08-01T17:18:33;16.40;99.90
30063;DHT22;16889;67.864;24.990;2023-08-01T17:23:19;16.50;99.90
30063;DHT22;16889;67.864;24.990;2023-08-01T17:28:05;16.70;99.90
30063;DHT22;16889;67.864;24.990;2023-08-01T17:32:51;16.90;99.90
30063;DHT22;16889;67.864;24.990;2023-08-01T17:37:36;16.90;99.90
30063;DHT22;16889;67.864;24.990;2023-08-01T17:42:22;16.60;99.90
30063;DHT22;16889;67.864;24.990;2023-08-01T17:47:08;16.40;99.90
30063;DHT22;16889;67.864;24.990;2023-08-01T17:51:55;16.30;99.90
30063;DHT22;16889;67.864;24.990;2023-08-01T17:56:41;16.30;99.90
30063;DHT22;16889;67.864;24.990;2023-08-01T18:01:27;16.20;99.90
30063;DHT22;16889;67.864;24.990;2023-08-01T18:06:14;16.00;99.90
30063;DHT22;16889;67.864;24.990;2023-08-01T18:11:01;15.90;99.90
30063;DHT22;16889;67.864;24.990;2023-08-01T18:15:47;15.80;99.90
30063;DHT22;16889;67.864;24.990;2023-08-01T18:20:33;15.60;99.90
30063;DHT22;16889;67.864;24.990;2023-08-01T18:25:19;15.60;99.90
30063;DHT22;16889;67.864;24.990;2023-08-01T18:30:06;15.50;99.90
30063;DHT22;16889;67.864;24.990;2023-08-01T18:34:52;15.40;99.90
30063;DHT22;16889;67.864;24.990;2023-08-01T18:39:44;15.20;99.90
30063;DHT22;16889;67.864;24.990;2023-08-01T18:44:30;15.30;99.90
30063;DHT22;16889;67.864;24.990;2023-08-01T18:49:16;15.30;99.90
30063;DHT22;16889;67.864;24.990;2023-08-01T18:54:02;15.20;99.90
30063;DHT22;16889;67.864;24.990;2023-08-01T18:58:49;15.20;99.90
30063;DHT22;16889;67.864;24.990;2023-08-01T19:03:35;15.10;99.90
30063;DHT22;16889;67.864;24.990;2023-08-01T19:08:21;15.10;99.90
30063;DHT22;16889;67.864;24.990;2023-08-01T19:13:07;15.10;99.90
30063;DHT22;16889;67.864;24.990;2023-08-01T19:17:53;14.90;99.90
30063;DHT22;16889;67.864;24.990;2023-08-01T19:22:39;14.80;99.90
30063;DHT22;16889;67.864;24.990;2023-08-01T19:27:25;14.60;99.90
30063;DHT22;16889;67.864;24.990;2023-08-01T19:32:12;14.50;99.90
30063;DHT22;16889;67.864;24.990;2023-08-01T19:36:58;14.40;99.90
30063;DHT22;16889;67.864;24.990;2023-08-01T19:41:44;14.30;99.90
30063;DHT22;16889;67.864;24.990;2023-08-01T19:46:30;14.20;99.90
30063;DHT22;16889;67.864;24.990;2023-08-01T19:51:16;14.00;99.90
30063;DHT22;16889;67.864;24.990;2023-08-01T19:56:02;14.00;99.90
30063;DHT22;16889;67.864;24.990;2023-08-01T20:00:48;14.00;99.90
30063;DHT22;16889;67.864;24.990;2023-08-01T20:05:34;14.10;99.90
30063;DHT22;16889;67.864;24.990;2023-08-01T20:10:20;14.10;99.90
30063;DHT22;16889;67.864;24.990;2023-08-01T20:15:07;14.20;99.90
30063;DHT22;16889;67.864;24.990;2023-08-01T20:19:53;14.10;99.90
30063;DHT22;16889;67.864;24.990;2023-08-01T20:24:39;14.10;99.90
30063;DHT22;16889;67.864;24.990;2023-08-01T20:29:25;14.10;99.90
30063;DHT22;16889;67.864;24.990;2023-08-01T20:34:11;14.00;99.90
30063;DHT22;16889;67.864;24.990;2023-08-01T20:38:58;14.20;99.90
30063;DHT22;16889;67.864;24.990;2023-08-01T20:43:44;14.20;99.90
30063;DHT22;16889;67.864;24.990;2023-08-01T20:48:30;14.40;99.90
30063;DHT22;16889;67.864;24.990;2023-08-01T20:53:16;14.30;99.90
30063;DHT22;16889;67.864;24.990;2023-08-01T20:58:02;14.50;99.90
30063;DHT22;16889;67.864;24.990;2023-08-01T21:02:48;14.50;99.90
30063;DHT22;16889;67.864;24.990;2023-08-01T21:07:35;14.40;99.90
30063;DHT22;16889;67.864;24.990;2023-08-01T21:12:21;14.20;99.90
30063;DHT22;16889;67.864;24.990;2023-08-01T21:17:07;14.20;99.90
30063;DHT22;16889;67.864;24.990;2023-08-01T21:21:54;14.10;99.90
30063;DHT22;16889;67.864;24.990;2023-08-01T21:26:40;14.10;99.90
30063;DHT22;16889;67.864;24.990;2023-08-01T21:31:26;14.10;99.90
30063;DHT22;16889;67.864;24.990;2023-08-01T21:36:12;14.10;99.90
30063;DHT22;16889;67.864;24.990;2023-08-01T21:40:58;14.00;99.90
30063;DHT22;16889;67.864;24.990;2023-08-01T21:45:44;14.10;99.90
30063;DHT22;16889;67.864;24.990;2023-08-01T21:50:38;14.10;99.90
30063;DHT22;16889;67.864;24.990;2023-08-01T21:55:24;14.10;99.90
30063;DHT22;16889;67.864;24.990;2023-08-01T22:00:13;14.10;99.90
30063;DHT22;16889;67.864;24.990;2023-08-01T22:04:59;14.20;99.90
30063;DHT22;16889;67.864;24.990;2023-08-01T22:09:45;14.20;99.90
30063;DHT22;16889;67.864;24.990;2023-08-01T22:14:31;14.00;99.90
30063;DHT22;16889;67.864;24.990;2023-08-01T22:19:17;13.90;99.90
30063;DHT22;16889;67.864;24.990;2023-08-01T22:24:03;14.20;99.90
30063;DHT22;16889;67.864;24.990;2023-08-01T22:28:49;14.20;99.90
30063;DHT22;16889;67.864;24.990;2023-08-01T22:33:35;14.10;99.90
30063;DHT22;16889;67.864;24.990;2023-08-01T22:38:21;14.20;99.90
30063;DHT22;16889;67.864;24.990;2023-08-01T22:43:07;14.30;99.90
30063;DHT22;16889;67.864;24.990;2023-08-01T22:47:54;14.20;99.90
30063;DHT22;16889;67.864;24.990;2023-08-01T22:52:39;14.20;99.90
30063;DHT22;16889;67.864;24.990;2023-08-01T22:57:25;14.30;99.90
30063;DHT22;16889;67.864;24.990;2023-08-01T23:02:11;14.40;99.90
30063;DHT22;16889;67.864;24.990;2023-08-01T23:06:58;14.30;99.90
30063;DHT22;16889;67.864;24.990;2023-08-01T23:11:43;14.40;99.90
30063;DHT22;16889;67.864;24.990;2023-08-01T23:16:29;14.20;99.90
30063;DHT22;16889;67.864;24.990;2023-08-01T23:21:15;14.20;99.90
30063;DHT22;16889;67.864;24.990;2023-08-01T23:26:03;14.20;99.90
30063;DHT22;16889;67.864;24.990;2023-08-01T23:30:51;14.20;99.90
30063;DHT22;16889;67.864;24.990;2023-08-01T23:35:37;14.30;99.90
30063;DHT22;16889;67.864;24.990;2023-08-01T23:40:23;14.20;99.90
30063;DHT22;16889;67.864;24.990;2023-08-01T23:45:09;14.10;99.90
30063;DHT22;16889;67.864;24.990;2023-08-01T23:49:55;14.10;99.90
30063;DHT22;16889;67.864;24.990;2023-08-01T23:54:41;14.10;99.90
30063;DHT22;16889;67.864;24.990;2023-08-01T23:59:28;14.10;99.90
